首页
METAR-TAF:

METAR-TAF

机场 :

石家庄正定国际机场

石家庄市, 中华人民共和国

纬度: 38-16-51N, 经度: 114-41-48E, 海拔: 233米

当前天气观测

该预报发布于18分钟前的05:00 UTC
风速2节,风向东南
温度 12°C
湿度 67%
气压 1021 hPa
能見度: 1500
轻雾

METAR: ZBSJ 140500Z 13001MPS 1500 BR NSC 12/06 Q1021 NOSIG

时间: 13:18 (05:18 UTC)

预报

该预报发布于10小时和14分钟前的19:04 UTC
预报有效从14日的 00点(UTC)到 14日的 24点(UTC)
风速8节,风向东转东南
能見度: 0300
成为
从 14日的 01点(UTC)到 14日的 02点(UTC)
能見度: 0700
成为
从 14日的 03点(UTC)到 14日的 04点(UTC)
能見度: 0900

TAF: ZBSJ 131904Z 1400/1424 11004MPS 0300 FG NSC TX11/1406Z TN02/1421Z BECMG 1401/1402 0700 FG BECMG 1403/1404 0900 FG

超过4000个机场的气象观测和天气预报(METAR&TAF报告)。

可查询的气象台以黄色和红色小点在地图上表示。

将鼠标移到小点上方,可查看气象台名称。

然后点击查看天气观测和预报。

如需切换地图:点击带黑十字的绿色按钮放大地图;点击带横线的绿色按钮缩小地图;或者点击绿色箭头查看邻近地区的地图。


METAR-TAF: